sensor_id;sensor_type;location;lat;lon;timestamp;temperature;humidity
23120;DHT22;11729;50.836;4.330;2022-12-29T00:00:04;12.20;99.90
23120;DHT22;11729;50.836;4.330;2022-12-29T00:02:30;12.30;99.90
23120;DHT22;11729;50.836;4.330;2022-12-29T00:04:55;12.30;99.90
23120;DHT22;11729;50.836;4.330;2022-12-29T00:07:21;12.20;99.90
23120;DHT22;11729;50.836;4.330;2022-12-29T00:09:46;12.20;99.90
23120;DHT22;11729;50.836;4.330;2022-12-29T00:12:13;12.40;99.90
23120;DHT22;11729;50.836;4.330;2022-12-29T00:14:38;12.30;99.90
23120;DHT22;11729;50.836;4.330;2022-12-29T00:17:26;12.40;99.90
23120;DHT22;11729;50.836;4.330;2022-12-29T00:19:52;12.40;99.90
23120;DHT22;11729;50.836;4.330;2022-12-29T00:22:36;12.50;99.90
23120;DHT22;11729;50.836;4.330;2022-12-29T00:25:20;12.50;99.90
23120;DHT22;11729;50.836;4.330;2022-12-29T00:28:08;12.50;99.90
23120;DHT22;11729;50.836;4.330;2022-12-29T00:30:52;12.60;99.90
23120;DHT22;11729;50.836;4.330;2022-12-29T00:33:36;12.60;99.90
23120;DHT22;11729;50.836;4.330;2022-12-29T00:36:28;12.60;99.90
23120;DHT22;11729;50.836;4.330;2022-12-29T00:39:04;12.70;99.90
23120;DHT22;11729;50.836;4.330;2022-12-29T00:41:50;12.80;99.90
23120;DHT22;11729;50.836;4.330;2022-12-29T00:44:34;12.80;99.90
23120;DHT22;11729;50.836;4.330;2022-12-29T00:47:00;12.80;99.90
23120;DHT22;11729;50.836;4.330;2022-12-29T00:49:29;12.90;99.90
23120;DHT22;11729;50.836;4.330;2022-12-29T00:52:02;12.90;99.90
23120;DHT22;11729;50.836;4.330;2022-12-29T00:54:30;12.90;99.90
23120;DHT22;11729;50.836;4.330;2022-12-29T00:56:56;12.90;99.90
23120;DHT22;11729;50.836;4.330;2022-12-29T00:59:22;12.90;99.90
23120;DHT22;11729;50.836;4.330;2022-12-29T01:01:49;12.90;99.90
23120;DHT22;11729;50.836;4.330;2022-12-29T01:04:15;13.00;99.90
23120;DHT22;11729;50.836;4.330;2022-12-29T01:06:41;13.00;99.90
23120;DHT22;11729;50.836;4.330;2022-12-29T01:09:09;13.00;99.90
23120;DHT22;11729;50.836;4.330;2022-12-29T01:11:53;13.00;99.90
23120;DHT22;11729;50.836;4.330;2022-12-29T01:14:20;13.00;99.90
23120;DHT22;11729;50.836;4.330;2022-12-29T01:16:45;12.90;99.90
23120;DHT22;11729;50.836;4.330;2022-12-29T01:19:12;12.80;99.90
23120;DHT22;11729;50.836;4.330;2022-12-29T01:21:37;12.70;99.90
23120;DHT22;11729;50.836;4.330;2022-12-29T01:24:03;12.70;99.90
23120;DHT22;11729;50.836;4.330;2022-12-29T01:26:29;12.50;99.90
23120;DHT22;11729;50.836;4.330;2022-12-29T01:28:55;12.40;99.90
23120;DHT22;11729;50.836;4.330;2022-12-29T01:31:21;12.40;99.90
23120;DHT22;11729;50.836;4.330;2022-12-29T01:33:46;12.20;99.90
23120;DHT22;11729;50.836;4.330;2022-12-29T01:36:14;12.10;99.90
23120;DHT22;11729;50.836;4.330;2022-12-29T01:38:41;11.80;99.90
23120;DHT22;11729;50.836;4.330;2022-12-29T01:41:08;11.80;99.90
23120;DHT22;11729;50.836;4.330;2022-12-29T01:43:52;11.80;99.90
23120;DHT22;11729;50.836;4.330;2022-12-29T01:49:21;11.80;99.90
23120;DHT22;11729;50.836;4.330;2022-12-29T01:51:56;11.70;99.90
23120;DHT22;11729;50.836;4.330;2022-12-29T01:54:51;11.80;99.90
23120;DHT22;11729;50.836;4.330;2022-12-29T01:57:20;11.80;99.90
23120;DHT22;11729;50.836;4.330;2022-12-29T02:00:00;11.70;99.90
23120;DHT22;11729;50.836;4.330;2022-12-29T02:02:27;11.70;99.90
23120;DHT22;11729;50.836;4.330;2022-12-29T02:04:55;11.70;99.90
23120;DHT22;11729;50.836;4.330;2022-12-29T02:07:25;11.70;99.90
23120;DHT22;11729;50.836;4.330;2022-12-29T02:09:53;11.60;99.90
23120;DHT22;11729;50.836;4.330;2022-12-29T02:12:22;11.40;99.90
23120;DHT22;11729;50.836;4.330;2022-12-29T02:14:50;11.40;99.90
23120;DHT22;11729;50.836;4.330;2022-12-29T02:30:01;10.90;99.90
23120;DHT22;11729;50.836;4.330;2022-12-29T02:32:24;10.90;99.90
23120;DHT22;11729;50.836;4.330;2022-12-29T02:35:28;10.80;99.90
23120;DHT22;11729;50.836;4.330;2022-12-29T02:46:33;10.60;99.90
23120;DHT22;11729;50.836;4.330;2022-12-29T02:52:00;10.60;99.90
23120;DHT22;11729;50.836;4.330;2022-12-29T02:54:27;10.60;99.90
23120;DHT22;11729;50.836;4.330;2022-12-29T02:59:50;10.70;99.90
23120;DHT22;11729;50.836;4.330;2022-12-29T03:10:25;10.30;99.90
23120;DHT22;11729;50.836;4.330;2022-12-29T03:16:23;10.10;99.90
23120;DHT22;11729;50.836;4.330;2022-12-29T03:21:41;10.10;99.90
23120;DHT22;11729;50.836;4.330;2022-12-29T03:24:29;10.20;99.90
23120;DHT22;11729;50.836;4.330;2022-12-29T03:27:01;10.30;99.90
23120;DHT22;11729;50.836;4.330;2022-12-29T03:29:30;10.30;99.90
23120;DHT22;11729;50.836;4.330;2022-12-29T03:31:59;10.30;99.90
23120;DHT22;11729;50.836;4.330;2022-12-29T03:34:27;10.40;99.90
23120;DHT22;11729;50.836;4.330;2022-12-29T03:37:05;10.60;99.90
23120;DHT22;11729;50.836;4.330;2022-12-29T03:39:32;10.60;99.90
23120;DHT22;11729;50.836;4.330;2022-12-29T03:42:02;10.70;99.90
23120;DHT22;11729;50.836;4.330;2022-12-29T03:44:47;10.70;99.90
23120;DHT22;11729;50.836;4.330;2022-12-29T03:47:14;10.80;99.90
23120;DHT22;11729;50.836;4.330;2022-12-29T03:49:40;10.80;99.90
23120;DHT22;11729;50.836;4.330;2022-12-29T03:52:07;10.80;99.90
23120;DHT22;11729;50.836;4.330;2022-12-29T03:54:32;10.80;99.90
23120;DHT22;11729;50.836;4.330;2022-12-29T03:56:58;10.80;99.90
23120;DHT22;11729;50.836;4.330;2022-12-29T03:59:24;10.90;99.90
23120;DHT22;11729;50.836;4.330;2022-12-29T04:01:49;10.90;99.90
23120;DHT22;11729;50.836;4.330;2022-12-29T04:04:15;10.80;99.90
23120;DHT22;11729;50.836;4.330;2022-12-29T04:06:41;10.70;99.90
23120;DHT22;11729;50.836;4.330;2022-12-29T04:09:07;10.70;99.90
23120;DHT22;11729;50.836;4.330;2022-12-29T04:11:33;10.80;99.90
23120;DHT22;11729;50.836;4.330;2022-12-29T04:13:58;10.80;99.90
23120;DHT22;11729;50.836;4.330;2022-12-29T04:16:26;10.60;99.90
23120;DHT22;11729;50.836;4.330;2022-12-29T04:18:51;10.50;99.90
23120;DHT22;11729;50.836;4.330;2022-12-29T04:21:17;10.50;99.90
23120;DHT22;11729;50.836;4.330;2022-12-29T04:23:43;10.50;99.90
23120;DHT22;11729;50.836;4.330;2022-12-29T04:26:10;10.40;99.90
23120;DHT22;11729;50.836;4.330;2022-12-29T04:28:36;10.50;99.90
23120;DHT22;11729;50.836;4.330;2022-12-29T04:31:03;10.40;99.90
23120;DHT22;11729;50.836;4.330;2022-12-29T04:33:29;10.40;99.90
23120;DHT22;11729;50.836;4.330;2022-12-29T04:35:55;10.40;99.90
23120;DHT22;11729;50.836;4.330;2022-12-29T04:38:22;10.40;99.90
23120;DHT22;11729;50.836;4.330;2022-12-29T04:40:49;10.50;99.90
23120;DHT22;11729;50.836;4.330;2022-12-29T04:43:16;10.50;99.90
23120;DHT22;11729;50.836;4.330;2022-12-29T04:45:46;10.70;99.90
23120;DHT22;11729;50.836;4.330;2022-12-29T04:48:12;10.80;99.90
23120;DHT22;11729;50.836;4.330;2022-12-29T04:50:40;10.70;99.90
23120;DHT22;11729;50.836;4.330;2022-12-29T04:53:05;10.70;99.90
23120;DHT22;11729;50.836;4.330;2022-12-29T04:55:32;10.70;99.90
23120;DHT22;11729;50.836;4.330;2022-12-29T04:57:58;10.90;99.90
23120;DHT22;11729;50.836;4.330;2022-12-29T05:00:23;10.90;99.90
23120;DHT22;11729;50.836;4.330;2022-12-29T05:02:49;11.00;99.90
23120;DHT22;11729;50.836;4.330;2022-12-29T05:05:15;11.00;99.90
23120;DHT22;11729;50.836;4.330;2022-12-29T05:07:40;11.00;99.90
23120;DHT22;11729;50.836;4.330;2022-12-29T05:10:07;11.00;99.90
23120;DHT22;11729;50.836;4.330;2022-12-29T05:12:35;11.10;99.90
23120;DHT22;11729;50.836;4.330;2022-12-29T05:15:01;11.20;99.90
23120;DHT22;11729;50.836;4.330;2022-12-29T05:17:28;11.20;99.90
23120;DHT22;11729;50.836;4.330;2022-12-29T05:19:54;11.20;99.90
23120;DHT22;11729;50.836;4.330;2022-12-29T05:22:20;11.30;99.90
23120;DHT22;11729;50.836;4.330;2022-12-29T05:24:46;11.30;99.90
23120;DHT22;11729;50.836;4.330;2022-12-29T05:27:12;11.30;99.90
23120;DHT22;11729;50.836;4.330;2022-12-29T05:29:39;11.30;99.90
23120;DHT22;11729;50.836;4.330;2022-12-29T05:32:05;11.30;99.90
23120;DHT22;11729;50.836;4.330;2022-12-29T05:34:30;11.50;99.90
23120;DHT22;11729;50.836;4.330;2022-12-29T05:36:57;11.50;99.90
23120;DHT22;11729;50.836;4.330;2022-12-29T05:39:22;11.50;99.90
23120;DHT22;11729;50.836;4.330;2022-12-29T05:41:50;11.50;99.90
23120;DHT22;11729;50.836;4.330;2022-12-29T05:44:16;11.60;99.90
23120;DHT22;11729;50.836;4.330;2022-12-29T05:46:41;11.50;99.90
23120;DHT22;11729;50.836;4.330;2022-12-29T05:49:07;11.50;99.90
23120;DHT22;11729;50.836;4.330;2022-12-29T05:51:32;11.50;99.90
23120;DHT22;11729;50.836;4.330;2022-12-29T05:53:58;11.50;99.90
23120;DHT22;11729;50.836;4.330;2022-12-29T05:56:24;11.60;99.90
23120;DHT22;11729;50.836;4.330;2022-12-29T05:58:49;11.50;99.90
23120;DHT22;11729;50.836;4.330;2022-12-29T06:01:16;11.40;99.90
23120;DHT22;11729;50.836;4.330;2022-12-29T06:03:42;11.40;99.90
23120;DHT22;11729;50.836;4.330;2022-12-29T06:06:09;11.40;99.90
23120;DHT22;11729;50.836;4.330;2022-12-29T06:08:35;11.40;99.90
23120;DHT22;11729;50.836;4.330;2022-12-29T06:11:00;11.30;99.90
23120;DHT22;11729;50.836;4.330;2022-12-29T06:13:26;11.30;99.90
23120;DHT22;11729;50.836;4.330;2022-12-29T06:15:53;11.40;99.90
23120;DHT22;11729;50.836;4.330;2022-12-29T06:18:19;11.40;99.90
23120;DHT22;11729;50.836;4.330;2022-12-29T06:20:45;11.50;99.90
23120;DHT22;11729;50.836;4.330;2022-12-29T06:23:11;11.40;99.90
23120;DHT22;11729;50.836;4.330;2022-12-29T06:25:39;11.30;99.90
23120;DHT22;11729;50.836;4.330;2022-12-29T06:28:05;11.30;99.90
23120;DHT22;11729;50.836;4.330;2022-12-29T06:30:32;11.40;99.90
23120;DHT22;11729;50.836;4.330;2022-12-29T06:33:00;11.40;99.90
23120;DHT22;11729;50.836;4.330;2022-12-29T06:35:26;11.40;99.90
23120;DHT22;11729;50.836;4.330;2022-12-29T06:37:52;11.40;99.90
23120;DHT22;11729;50.836;4.330;2022-12-29T06:40:17;11.60;99.90
23120;DHT22;11729;50.836;4.330;2022-12-29T06:42:44;11.50;99.90
23120;DHT22;11729;50.836;4.330;2022-12-29T06:45:10;11.60;99.90
23120;DHT22;11729;50.836;4.330;2022-12-29T06:47:35;11.60;99.90
23120;DHT22;11729;50.836;4.330;2022-12-29T06:50:04;11.50;99.90
23120;DHT22;11729;50.836;4.330;2022-12-29T06:52:29;11.60;99.90
23120;DHT22;11729;50.836;4.330;2022-12-29T06:54:55;11.70;99.90
23120;DHT22;11729;50.836;4.330;2022-12-29T06:57:21;11.70;99.90
23120;DHT22;11729;50.836;4.330;2022-12-29T06:59:48;11.80;99.90
23120;DHT22;11729;50.836;4.330;2022-12-29T07:02:13;11.70;99.90
23120;DHT22;11729;50.836;4.330;2022-12-29T07:04:40;11.60;99.90
23120;DHT22;11729;50.836;4.330;2022-12-29T07:07:05;11.70;99.90
23120;DHT22;11729;50.836;4.330;2022-12-29T07:09:31;11.60;99.90
23120;DHT22;11729;50.836;4.330;2022-12-29T07:11:57;11.50;99.90
23120;DHT22;11729;50.836;4.330;2022-12-29T07:14:22;11.50;99.90
23120;DHT22;11729;50.836;4.330;2022-12-29T07:16:48;11.60;99.90
23120;DHT22;11729;50.836;4.330;2022-12-29T07:19:14;11.50;99.90
23120;DHT22;11729;50.836;4.330;2022-12-29T07:21:39;11.60;99.90
23120;DHT22;11729;50.836;4.330;2022-12-29T07:24:05;11.60;99.90
23120;DHT22;11729;50.836;4.330;2022-12-29T07:26:31;11.70;99.90
23120;DHT22;11729;50.836;4.330;2022-12-29T07:28:56;11.70;99.90
23120;DHT22;11729;50.836;4.330;2022-12-29T07:31:23;11.70;99.90
23120;DHT22;11729;50.836;4.330;2022-12-29T07:33:49;11.70;99.90
23120;DHT22;11729;50.836;4.330;2022-12-29T07:36:15;11.70;99.90
23120;DHT22;11729;50.836;4.330;2022-12-29T07:38:42;11.60;99.90
23120;DHT22;11729;50.836;4.330;2022-12-29T07:41:08;11.60;99.90
23120;DHT22;11729;50.836;4.330;2022-12-29T07:43:33;11.70;99.90
23120;DHT22;11729;50.836;4.330;2022-12-29T07:45:59;11.60;99.90
23120;DHT22;11729;50.836;4.330;2022-12-29T07:48:25;11.70;99.90
23120;DHT22;11729;50.836;4.330;2022-12-29T07:50:51;11.70;99.90
23120;DHT22;11729;50.836;4.330;2022-12-29T07:53:17;11.70;99.90
23120;DHT22;11729;50.836;4.330;2022-12-29T07:55:43;11.70;99.90
23120;DHT22;11729;50.836;4.330;2022-12-29T07:58:09;11.70;99.90
23120;DHT22;11729;50.836;4.330;2022-12-29T08:00:35;11.70;99.90
23120;DHT22;11729;50.836;4.330;2022-12-29T08:03:01;11.70;99.90
23120;DHT22;11729;50.836;4.330;2022-12-29T08:05:33;11.70;99.90
23120;DHT22;11729;50.836;4.330;2022-12-29T08:07:59;11.60;99.90
23120;DHT22;11729;50.836;4.330;2022-12-29T08:10:27;11.70;99.90
23120;DHT22;11729;50.836;4.330;2022-12-29T08:12:54;11.70;99.90
23120;DHT22;11729;50.836;4.330;2022-12-29T08:15:23;11.70;99.90
23120;DHT22;11729;50.836;4.330;2022-12-29T08:17:48;11.70;99.90
23120;DHT22;11729;50.836;4.330;2022-12-29T08:20:14;11.70;99.90
23120;DHT22;11729;50.836;4.330;2022-12-29T08:22:40;11.70;99.90
23120;DHT22;11729;50.836;4.330;2022-12-29T08:25:06;11.70;99.90
23120;DHT22;11729;50.836;4.330;2022-12-29T08:27:31;11.70;99.90
23120;DHT22;11729;50.836;4.330;2022-12-29T08:29:57;11.70;99.90
23120;DHT22;11729;50.836;4.330;2022-12-29T08:32:23;11.70;99.90
23120;DHT22;11729;50.836;4.330;2022-12-29T08:34:48;11.60;99.90
23120;DHT22;11729;50.836;4.330;2022-12-29T08:37:14;11.60;99.90
23120;DHT22;11729;50.836;4.330;2022-12-29T08:39:40;11.60;99.90
23120;DHT22;11729;50.836;4.330;2022-12-29T08:42:05;11.60;99.90
23120;DHT22;11729;50.836;4.330;2022-12-29T08:44:31;11.60;99.90
23120;DHT22;11729;50.836;4.330;2022-12-29T08:46:57;11.70;99.90
23120;DHT22;11729;50.836;4.330;2022-12-29T08:49:22;11.60;99.90
23120;DHT22;11729;50.836;4.330;2022-12-29T08:51:48;11.60;99.90
23120;DHT22;11729;50.836;4.330;2022-12-29T08:54:13;11.70;99.90
23120;DHT22;11729;50.836;4.330;2022-12-29T08:56:39;11.70;99.90
23120;DHT22;11729;50.836;4.330;2022-12-29T08:59:05;11.80;99.90
23120;DHT22;11729;50.836;4.330;2022-12-29T09:01:31;11.80;99.90
23120;DHT22;11729;50.836;4.330;2022-12-29T09:03:56;11.80;99.90
23120;DHT22;11729;50.836;4.330;2022-12-29T09:06:23;11.70;99.90
23120;DHT22;11729;50.836;4.330;2022-12-29T09:08:48;11.60;99.90
23120;DHT22;11729;50.836;4.330;2022-12-29T09:11:21;11.50;99.90
23120;DHT22;11729;50.836;4.330;2022-12-29T09:13:49;11.30;99.90
23120;DHT22;11729;50.836;4.330;2022-12-29T09:16:15;11.40;99.90
23120;DHT22;11729;50.836;4.330;2022-12-29T09:18:42;11.30;99.90
23120;DHT22;11729;50.836;4.330;2022-12-29T09:21:09;11.40;99.90
23120;DHT22;11729;50.836;4.330;2022-12-29T09:23:35;11.50;99.90
23120;DHT22;11729;50.836;4.330;2022-12-29T09:26:01;11.50;99.90
23120;DHT22;11729;50.836;4.330;2022-12-29T09:28:26;11.40;99.90
23120;DHT22;11729;50.836;4.330;2022-12-29T09:30:55;11.20;99.90
23120;DHT22;11729;50.836;4.330;2022-12-29T09:33:21;11.10;99.90
23120;DHT22;11729;50.836;4.330;2022-12-29T09:35:54;11.00;99.90
23120;DHT22;11729;50.836;4.330;2022-12-29T09:38:21;11.00;99.90
23120;DHT22;11729;50.836;4.330;2022-12-29T09:40:55;11.00;99.90
23120;DHT22;11729;50.836;4.330;2022-12-29T09:49:07;10.90;99.90
23120;DHT22;11729;50.836;4.330;2022-12-29T09:51:37;11.00;99.90
23120;DHT22;11729;50.836;4.330;2022-12-29T09:57:32;11.20;99.90
23120;DHT22;11729;50.836;4.330;2022-12-29T10:00:05;11.30;99.90
23120;DHT22;11729;50.836;4.330;2022-12-29T10:02:37;11.40;99.90
23120;DHT22;11729;50.836;4.330;2022-12-29T10:05:04;11.50;99.90
23120;DHT22;11729;50.836;4.330;2022-12-29T10:07:40;11.60;99.90
23120;DHT22;11729;50.836;4.330;2022-12-29T10:10:29;11.70;99.90
23120;DHT22;11729;50.836;4.330;2022-12-29T10:13:28;11.80;99.90
23120;DHT22;11729;50.836;4.330;2022-12-29T10:16:15;11.70;99.90
23120;DHT22;11729;50.836;4.330;2022-12-29T10:24:07;11.90;99.90
23120;DHT22;11729;50.836;4.330;2022-12-29T10:26:43;11.90;99.90
23120;DHT22;11729;50.836;4.330;2022-12-29T10:29:14;12.00;99.90
23120;DHT22;11729;50.836;4.330;2022-12-29T10:31:46;12.00;99.90
23120;DHT22;11729;50.836;4.330;2022-12-29T10:34:22;12.10;99.90
23120;DHT22;11729;50.836;4.330;2022-12-29T10:37:00;12.30;99.90
23120;DHT22;11729;50.836;4.330;2022-12-29T10:39:38;12.20;99.90
23120;DHT22;11729;50.836;4.330;2022-12-29T10:44:43;12.10;99.90
23120;DHT22;11729;50.836;4.330;2022-12-29T10:47:16;12.10;99.90
23120;DHT22;11729;50.836;4.330;2022-12-29T10:49:46;12.10;99.90
23120;DHT22;11729;50.836;4.330;2022-12-29T10:52:13;12.20;99.90
23120;DHT22;11729;50.836;4.330;2022-12-29T10:55:17;12.20;99.90
23120;DHT22;11729;50.836;4.330;2022-12-29T10:57:45;12.40;99.90
23120;DHT22;11729;50.836;4.330;2022-12-29T11:00:12;12.40;99.90
23120;DHT22;11729;50.836;4.330;2022-12-29T11:05:37;12.50;99.90
23120;DHT22;11729;50.836;4.330;2022-12-29T11:08:10;12.60;99.90
23120;DHT22;11729;50.836;4.330;2022-12-29T11:10:39;12.70;99.90
23120;DHT22;11729;50.836;4.330;2022-12-29T11:13:16;12.80;99.90
23120;DHT22;11729;50.836;4.330;2022-12-29T11:15:50;12.90;99.90
23120;DHT22;11729;50.836;4.330;2022-12-29T11:18:37;13.00;99.90
23120;DHT22;11729;50.836;4.330;2022-12-29T11:21:09;13.10;99.90
23120;DHT22;11729;50.836;4.330;2022-12-29T11:23:59;13.20;99.90
23120;DHT22;11729;50.836;4.330;2022-12-29T11:26:26;13.20;99.90
23120;DHT22;11729;50.836;4.330;2022-12-29T11:31:44;13.00;99.90
23120;DHT22;11729;50.836;4.330;2022-12-29T11:36:47;12.50;99.90
23120;DHT22;11729;50.836;4.330;2022-12-29T11:42:06;12.30;99.90
23120;DHT22;11729;50.836;4.330;2022-12-29T11:44:43;12.10;99.90
23120;DHT22;11729;50.836;4.330;2022-12-29T11:47:20;11.90;99.90
23120;DHT22;11729;50.836;4.330;2022-12-29T11:49:53;11.70;99.90
23120;DHT22;11729;50.836;4.330;2022-12-29T11:52:23;11.70;99.90
23120;DHT22;11729;50.836;4.330;2022-12-29T11:54:50;11.80;99.90
23120;DHT22;11729;50.836;4.330;2022-12-29T11:57:18;11.90;99.90
23120;DHT22;11729;50.836;4.330;2022-12-29T11:59:50;12.00;99.90
23120;DHT22;11729;50.836;4.330;2022-12-29T12:08:15;12.00;99.90
23120;DHT22;11729;50.836;4.330;2022-12-29T12:10:46;12.00;99.90
23120;DHT22;11729;50.836;4.330;2022-12-29T12:13:31;11.90;99.90
23120;DHT22;11729;50.836;4.330;2022-12-29T12:16:31;11.90;99.90
23120;DHT22;11729;50.836;4.330;2022-12-29T12:21:42;11.80;99.90
23120;DHT22;11729;50.836;4.330;2022-12-29T12:24:34;11.70;99.90
23120;DHT22;11729;50.836;4.330;2022-12-29T12:27:18;11.80;99.90
23120;DHT22;11729;50.836;4.330;2022-12-29T12:30:05;11.80;99.90
23120;DHT22;11729;50.836;4.330;2022-12-29T12:32:48;11.80;99.90
23120;DHT22;11729;50.836;4.330;2022-12-29T12:38:16;12.10;99.90
23120;DHT22;11729;50.836;4.330;2022-12-29T12:40:50;12.10;99.90
23120;DHT22;11729;50.836;4.330;2022-12-29T12:43:47;12.10;99.90
23120;DHT22;11729;50.836;4.330;2022-12-29T12:51:44;12.20;99.90
23120;DHT22;11729;50.836;4.330;2022-12-29T12:54:49;12.10;99.90
23120;DHT22;11729;50.836;4.330;2022-12-29T13:00:11;12.00;99.90
23120;DHT22;11729;50.836;4.330;2022-12-29T13:07:49;11.90;99.90
23120;DHT22;11729;50.836;4.330;2022-12-29T13:10:39;12.00;99.90
23120;DHT22;11729;50.836;4.330;2022-12-29T13:19:25;11.90;99.90
23120;DHT22;11729;50.836;4.330;2022-12-29T13:24:44;11.80;99.90
23120;DHT22;11729;50.836;4.330;2022-12-29T13:37:53;11.80;99.90
23120;DHT22;11729;50.836;4.330;2022-12-29T13:40:24;11.70;99.90
23120;DHT22;11729;50.836;4.330;2022-12-29T13:42:52;11.80;99.90
23120;DHT22;11729;50.836;4.330;2022-12-29T13:45:21;12.00;99.90
23120;DHT22;11729;50.836;4.330;2022-12-29T13:48:09;12.70;99.90
23120;DHT22;11729;50.836;4.330;2022-12-29T13:50:40;13.30;99.90
23120;DHT22;11729;50.836;4.330;2022-12-29T13:54:09;13.40;99.90
23120;DHT22;11729;50.836;4.330;2022-12-29T13:56:24;13.20;99.90
23120;DHT22;11729;50.836;4.330;2022-12-29T13:58:58;12.80;99.90
23120;DHT22;11729;50.836;4.330;2022-12-29T14:01:35;12.60;99.90
23120;DHT22;11729;50.836;4.330;2022-12-29T14:04:14;12.50;99.90
23120;DHT22;11729;50.836;4.330;2022-12-29T14:06:40;12.40;99.90
23120;DHT22;11729;50.836;4.330;2022-12-29T14:09:48;12.40;99.90
23120;DHT22;11729;50.836;4.330;2022-12-29T14:17:35;12.10;99.90
23120;DHT22;11729;50.836;4.330;2022-12-29T14:20:02;12.10;99.90
23120;DHT22;11729;50.836;4.330;2022-12-29T14:22:29;12.10;99.90
23120;DHT22;11729;50.836;4.330;2022-12-29T14:24:55;12.00;99.90
23120;DHT22;11729;50.836;4.330;2022-12-29T14:29:48;12.00;99.90
23120;DHT22;11729;50.836;4.330;2022-12-29T14:35:00;12.00;99.90
23120;DHT22;11729;50.836;4.330;2022-12-29T14:37:30;12.10;99.90
23120;DHT22;11729;50.836;4.330;2022-12-29T14:42:32;12.10;99.90
23120;DHT22;11729;50.836;4.330;2022-12-29T14:45:30;11.70;99.90
23120;DHT22;11729;50.836;4.330;2022-12-29T14:47:58;11.40;99.90
23120;DHT22;11729;50.836;4.330;2022-12-29T14:50:38;11.00;99.90
23120;DHT22;11729;50.836;4.330;2022-12-29T14:53:06;10.80;99.90
23120;DHT22;11729;50.836;4.330;2022-12-29T14:55:54;10.70;99.90
23120;DHT22;11729;50.836;4.330;2022-12-29T15:00:47;10.40;99.90
23120;DHT22;11729;50.836;4.330;2022-12-29T15:03:36;10.30;99.90
23120;DHT22;11729;50.836;4.330;2022-12-29T15:06:13;10.10;99.90
23120;DHT22;11729;50.836;4.330;2022-12-29T15:08:56;10.20;99.90
23120;DHT22;11729;50.836;4.330;2022-12-29T15:11:48;10.00;99.90
23120;DHT22;11729;50.836;4.330;2022-12-29T15:14:39;9.80;99.90
23120;DHT22;11729;50.836;4.330;2022-12-29T15:17:33;9.50;99.90
23120;DHT22;11729;50.836;4.330;2022-12-29T15:20:27;9.50;99.90
23120;DHT22;11729;50.836;4.330;2022-12-29T15:23:03;9.30;99.90
23120;DHT22;11729;50.836;4.330;2022-12-29T15:25:33;9.10;99.90
23120;DHT22;11729;50.836;4.330;2022-12-29T15:28:02;9.00;99.90
23120;DHT22;11729;50.836;4.330;2022-12-29T15:30:28;9.10;99.90
23120;DHT22;11729;50.836;4.330;2022-12-29T15:32:54;9.10;99.90
23120;DHT22;11729;50.836;4.330;2022-12-29T15:37:58;9.00;99.90
23120;DHT22;11729;50.836;4.330;2022-12-29T15:40:29;8.90;99.90
23120;DHT22;11729;50.836;4.330;2022-12-29T15:43:23;9.00;99.90
23120;DHT22;11729;50.836;4.330;2022-12-29T15:45:54;9.00;99.90
23120;DHT22;11729;50.836;4.330;2022-12-29T15:48:23;8.90;99.90
23120;DHT22;11729;50.836;4.330;2022-12-29T15:50:54;9.00;99.90
23120;DHT22;11729;50.836;4.330;2022-12-29T15:53:27;9.00;99.90
23120;DHT22;11729;50.836;4.330;2022-12-29T15:56:15;9.10;99.90
23120;DHT22;11729;50.836;4.330;2022-12-29T15:58:45;9.20;99.90
23120;DHT22;11729;50.836;4.330;2022-12-29T16:01:29;9.20;99.90
23120;DHT22;11729;50.836;4.330;2022-12-29T16:03:57;9.10;99.90
23120;DHT22;11729;50.836;4.330;2022-12-29T16:06:35;9.10;99.90
23120;DHT22;11729;50.836;4.330;2022-12-29T16:09:19;8.90;99.90
23120;DHT22;11729;50.836;4.330;2022-12-29T16:11:54;8.90;99.90
23120;DHT22;11729;50.836;4.330;2022-12-29T16:14:42;9.10;99.90
23120;DHT22;11729;50.836;4.330;2022-12-29T16:17:13;9.10;99.90
23120;DHT22;11729;50.836;4.330;2022-12-29T16:19:42;9.00;99.90
23120;DHT22;11729;50.836;4.330;2022-12-29T16:22:24;8.90;99.90
23120;DHT22;11729;50.836;4.330;2022-12-29T16:24:59;8.90;99.90
23120;DHT22;11729;50.836;4.330;2022-12-29T16:30:05;9.00;99.90
23120;DHT22;11729;50.836;4.330;2022-12-29T16:32:31;9.10;99.90
23120;DHT22;11729;50.836;4.330;2022-12-29T16:37:44;9.10;99.90
23120;DHT22;11729;50.836;4.330;2022-12-29T16:40:37;9.00;99.90
23120;DHT22;11729;50.836;4.330;2022-12-29T16:43:04;9.10;99.90
23120;DHT22;11729;50.836;4.330;2022-12-29T16:48:21;9.00;99.90
23120;DHT22;11729;50.836;4.330;2022-12-29T16:50:49;9.10;99.90
23120;DHT22;11729;50.836;4.330;2022-12-29T16:53:25;9.00;99.90
23120;DHT22;11729;50.836;4.330;2022-12-29T16:55:53;9.10;99.90
23120;DHT22;11729;50.836;4.330;2022-12-29T16:58:22;9.10;99.90
23120;DHT22;11729;50.836;4.330;2022-12-29T17:00:48;9.00;99.90
23120;DHT22;11729;50.836;4.330;2022-12-29T17:03:15;9.00;99.90
23120;DHT22;11729;50.836;4.330;2022-12-29T17:05:41;9.00;99.90
23120;DHT22;11729;50.836;4.330;2022-12-29T17:08:20;9.10;99.90
23120;DHT22;11729;50.836;4.330;2022-12-29T17:10:54;9.20;99.90
23120;DHT22;11729;50.836;4.330;2022-12-29T17:13:52;9.20;99.90
23120;DHT22;11729;50.836;4.330;2022-12-29T17:16:18;9.20;99.90
23120;DHT22;11729;50.836;4.330;2022-12-29T17:18:44;9.10;99.90
23120;DHT22;11729;50.836;4.330;2022-12-29T17:21:09;9.10;99.90
23120;DHT22;11729;50.836;4.330;2022-12-29T17:23:36;9.20;99.90
23120;DHT22;11729;50.836;4.330;2022-12-29T17:26:01;9.20;99.90
23120;DHT22;11729;50.836;4.330;2022-12-29T17:28:29;9.10;99.90
23120;DHT22;11729;50.836;4.330;2022-12-29T17:30:59;9.00;99.90
23120;DHT22;11729;50.836;4.330;2022-12-29T17:33:26;9.10;99.90
23120;DHT22;11729;50.836;4.330;2022-12-29T17:35:53;9.20;99.90
23120;DHT22;11729;50.836;4.330;2022-12-29T17:38:30;9.10;99.90
23120;DHT22;11729;50.836;4.330;2022-12-29T17:40:57;9.20;99.90
23120;DHT22;11729;50.836;4.330;2022-12-29T17:43:23;9.30;99.90
23120;DHT22;11729;50.836;4.330;2022-12-29T17:45:54;9.20;99.90
23120;DHT22;11729;50.836;4.330;2022-12-29T17:48:20;9.20;99.90
23120;DHT22;11729;50.836;4.330;2022-12-29T17:50:48;9.20;99.90
23120;DHT22;11729;50.836;4.330;2022-12-29T17:53:16;9.20;99.90
23120;DHT22;11729;50.836;4.330;2022-12-29T17:55:44;9.20;99.90
23120;DHT22;11729;50.836;4.330;2022-12-29T17:58:24;9.10;99.90
23120;DHT22;11729;50.836;4.330;2022-12-29T18:00:52;9.10;99.90
23120;DHT22;11729;50.836;4.330;2022-12-29T18:03:27;9.20;99.90
23120;DHT22;11729;50.836;4.330;2022-12-29T18:05:54;9.10;99.90
23120;DHT22;11729;50.836;4.330;2022-12-29T18:08:21;9.10;99.90
23120;DHT22;11729;50.836;4.330;2022-12-29T18:10:47;9.10;99.90
23120;DHT22;11729;50.836;4.330;2022-12-29T18:13:20;9.00;99.90
23120;DHT22;11729;50.836;4.330;2022-12-29T18:15:46;9.00;99.90
23120;DHT22;11729;50.836;4.330;2022-12-29T18:18:15;9.00;99.90